sensor_id;sensor_type;location;lat;lon;timestamp;P1;durP1;ratioP1;P2;durP2;ratioP2
12476;SDS011;6303;51.504;6.300;2023-02-21T00:01:52;3.25;;;2.95;;
12476;SDS011;6303;51.504;6.300;2023-02-21T00:04:36;4.38;;;3.03;;
12476;SDS011;6303;51.504;6.300;2023-02-21T00:07:21;3.78;;;2.80;;
12476;SDS011;6303;51.504;6.300;2023-02-21T00:10:07;8.50;;;3.05;;
12476;SDS011;6303;51.504;6.300;2023-02-21T00:12:52;3.15;;;2.95;;
12476;SDS011;6303;51.504;6.300;2023-02-21T00:15:36;3.40;;;2.90;;
12476;SDS011;6303;51.504;6.300;2023-02-21T00:18:22;4.18;;;3.05;;
12476;SDS011;6303;51.504;6.300;2023-02-21T00:21:06;3.30;;;3.00;;
12476;SDS011;6303;51.504;6.300;2023-02-21T00:23:51;3.33;;;3.00;;
12476;SDS011;6303;51.504;6.300;2023-02-21T00:26:35;4.35;;;3.33;;
12476;SDS011;6303;51.504;6.300;2023-02-21T00:29:20;3.38;;;3.08;;
12476;SDS011;6303;51.504;6.300;2023-02-21T00:32:04;3.45;;;2.90;;
12476;SDS011;6303;51.504;6.300;2023-02-21T00:34:50;3.30;;;3.00;;
12476;SDS011;6303;51.504;6.300;2023-02-21T00:37:34;3.15;;;2.95;;
12476;SDS011;6303;51.504;6.300;2023-02-21T00:40:19;3.10;;;2.80;;
12476;SDS011;6303;51.504;6.300;2023-02-21T00:43:03;3.33;;;3.03;;
12476;SDS011;6303;51.504;6.300;2023-02-21T00:45:48;3.53;;;3.22;;
12476;SDS011;6303;51.504;6.300;2023-02-21T00:48:32;3.42;;;3.13;;
12476;SDS011;6303;51.504;6.300;2023-02-21T00:51:19;3.78;;;3.28;;
12476;SDS011;6303;51.504;6.300;2023-02-21T00:54:03;3.35;;;3.05;;
12476;SDS011;6303;51.504;6.300;2023-02-21T00:56:48;3.13;;;2.90;;
12476;SDS011;6303;51.504;6.300;2023-02-21T00:59:32;4.70;;;2.92;;
12476;SDS011;6303;51.504;6.300;2023-02-21T01:02:17;3.35;;;2.85;;
12476;SDS011;6303;51.504;6.300;2023-02-21T01:05:01;4.60;;;3.40;;
12476;SDS011;6303;51.504;6.300;2023-02-21T01:07:48;2.85;;;2.65;;
12476;SDS011;6303;51.504;6.300;2023-02-21T01:10:32;3.05;;;2.85;;
12476;SDS011;6303;51.504;6.300;2023-02-21T01:13:16;3.70;;;2.90;;
12476;SDS011;6303;51.504;6.300;2023-02-21T01:16:01;3.50;;;3.20;;
12476;SDS011;6303;51.504;6.300;2023-02-21T01:18:45;3.58;;;2.95;;
12476;SDS011;6303;51.504;6.300;2023-02-21T01:21:30;3.72;;;2.90;;
12476;SDS011;6303;51.504;6.300;2023-02-21T01:24:15;3.58;;;3.03;;
12476;SDS011;6303;51.504;6.300;2023-02-21T01:27:00;2.92;;;2.65;;
12476;SDS011;6303;51.504;6.300;2023-02-21T01:29:47;3.47;;;2.95;;
12476;SDS011;6303;51.504;6.300;2023-02-21T01:32:32;3.20;;;2.90;;
12476;SDS011;6303;51.504;6.300;2023-02-21T01:35:16;3.20;;;2.90;;
12476;SDS011;6303;51.504;6.300;2023-02-21T01:38:01;3.35;;;3.05;;
12476;SDS011;6303;51.504;6.300;2023-02-21T01:40:47;3.30;;;3.00;;
12476;SDS011;6303;51.504;6.300;2023-02-21T01:43:33;3.90;;;3.58;;
12476;SDS011;6303;51.504;6.300;2023-02-21T01:46:19;3.10;;;2.90;;
12476;SDS011;6303;51.504;6.300;2023-02-21T01:49:04;3.35;;;2.92;;
12476;SDS011;6303;51.504;6.300;2023-02-21T01:51:52;3.83;;;3.25;;
12476;SDS011;6303;51.504;6.300;2023-02-21T01:54:39;3.40;;;3.05;;
12476;SDS011;6303;51.504;6.300;2023-02-21T01:57:29;4.07;;;3.40;;
12476;SDS011;6303;51.504;6.300;2023-02-21T02:00:14;3.50;;;3.20;;
12476;SDS011;6303;51.504;6.300;2023-02-21T02:03:01;3.90;;;3.50;;
12476;SDS011;6303;51.504;6.300;2023-02-21T02:05:48;3.85;;;3.47;;
12476;SDS011;6303;51.504;6.300;2023-02-21T02:08:35;3.15;;;2.85;;
12476;SDS011;6303;51.504;6.300;2023-02-21T02:11:28;3.75;;;3.33;;
12476;SDS011;6303;51.504;6.300;2023-02-21T02:17:21;3.60;;;3.30;;
12476;SDS011;6303;51.504;6.300;2023-02-21T02:20:11;3.25;;;2.95;;
12476;SDS011;6303;51.504;6.300;2023-02-21T02:26:29;3.70;;;3.38;;
12476;SDS011;6303;51.504;6.300;2023-02-21T02:29:22;3.90;;;3.50;;
12476;SDS011;6303;51.504;6.300;2023-02-21T02:32:18;4.07;;;3.47;;
12476;SDS011;6303;51.504;6.300;2023-02-21T02:35:14;3.67;;;3.38;;
12476;SDS011;6303;51.504;6.300;2023-02-21T02:37:48;3.67;;;3.38;;
12476;SDS011;6303;51.504;6.300;2023-02-21T02:40:24;4.05;;;3.60;;
12476;SDS011;6303;51.504;6.300;2023-02-21T02:43:01;3.72;;;3.42;;
12476;SDS011;6303;51.504;6.300;2023-02-21T02:45:35;3.95;;;3.58;;
12476;SDS011;6303;51.504;6.300;2023-02-21T02:48:09;3.75;;;3.30;;
12476;SDS011;6303;51.504;6.300;2023-02-21T02:50:43;3.78;;;3.47;;
12476;SDS011;6303;51.504;6.300;2023-02-21T02:53:14;3.85;;;3.55;;
12476;SDS011;6303;51.504;6.300;2023-02-21T02:55:44;3.85;;;3.47;;
12476;SDS011;6303;51.504;6.300;2023-02-21T02:58:16;3.78;;;3.47;;
12476;SDS011;6303;51.504;6.300;2023-02-21T03:00:48;4.20;;;3.20;;
12476;SDS011;6303;51.504;6.300;2023-02-21T03:03:28;4.05;;;3.45;;
12476;SDS011;6303;51.504;6.300;2023-02-21T03:06:24;3.72;;;3.42;;
12476;SDS011;6303;51.504;6.300;2023-02-21T03:08:58;3.70;;;3.15;;
12476;SDS011;6303;51.504;6.300;2023-02-21T03:11:33;3.67;;;3.38;;
12476;SDS011;6303;51.504;6.300;2023-02-21T03:14:07;3.65;;;3.35;;
12476;SDS011;6303;51.504;6.300;2023-02-21T03:16:40;3.45;;;3.15;;
12476;SDS011;6303;51.504;6.300;2023-02-21T03:19:13;4.20;;;3.20;;
12476;SDS011;6303;51.504;6.300;2023-02-21T03:21:45;4.18;;;3.78;;
12476;SDS011;6303;51.504;6.300;2023-02-21T03:24:16;4.88;;;3.60;;
12476;SDS011;6303;51.504;6.300;2023-02-21T03:26:45;3.92;;;3.53;;
12476;SDS011;6303;51.504;6.300;2023-02-21T03:29:41;3.10;;;2.90;;
12476;SDS011;6303;51.504;6.300;2023-02-21T03:32:10;3.63;;;3.33;;
12476;SDS011;6303;51.504;6.300;2023-02-21T03:34:41;3.70;;;3.38;;
12476;SDS011;6303;51.504;6.300;2023-02-21T03:37:18;3.55;;;3.25;;
12476;SDS011;6303;51.504;6.300;2023-02-21T03:39:48;3.40;;;3.10;;
12476;SDS011;6303;51.504;6.300;2023-02-21T03:42:15;3.40;;;3.10;;
12476;SDS011;6303;51.504;6.300;2023-02-21T03:44:42;3.42;;;3.13;;
12476;SDS011;6303;51.504;6.300;2023-02-21T03:47:09;3.38;;;3.08;;
12476;SDS011;6303;51.504;6.300;2023-02-21T03:49:36;3.70;;;3.40;;
12476;SDS011;6303;51.504;6.300;2023-02-21T03:52:03;3.78;;;3.42;;
12476;SDS011;6303;51.504;6.300;2023-02-21T03:54:32;3.90;;;3.60;;
12476;SDS011;6303;51.504;6.300;2023-02-21T03:56:59;4.10;;;3.70;;
12476;SDS011;6303;51.504;6.300;2023-02-21T03:59:28;3.72;;;3.42;;
12476;SDS011;6303;51.504;6.300;2023-02-21T04:01:55;4.32;;;3.90;;
12476;SDS011;6303;51.504;6.300;2023-02-21T04:04:24;3.75;;;3.45;;
12476;SDS011;6303;51.504;6.300;2023-02-21T04:07:00;4.05;;;3.65;;
12476;SDS011;6303;51.504;6.300;2023-02-21T04:09:27;4.53;;;3.58;;
12476;SDS011;6303;51.504;6.300;2023-02-21T04:11:56;3.97;;;3.58;;
12476;SDS011;6303;51.504;6.300;2023-02-21T04:14:25;3.97;;;3.67;;
12476;SDS011;6303;51.504;6.300;2023-02-21T04:16:53;3.70;;;3.30;;
12476;SDS011;6303;51.504;6.300;2023-02-21T04:19:21;4.40;;;4.00;;
12476;SDS011;6303;51.504;6.300;2023-02-21T04:21:48;4.30;;;3.90;;
12476;SDS011;6303;51.504;6.300;2023-02-21T04:24:15;4.20;;;3.50;;
12476;SDS011;6303;51.504;6.300;2023-02-21T04:26:43;5.13;;;3.70;;
12476;SDS011;6303;51.504;6.300;2023-02-21T04:29:12;4.25;;;3.85;;
12476;SDS011;6303;51.504;6.300;2023-02-21T04:31:39;3.80;;;3.50;;
12476;SDS011;6303;51.504;6.300;2023-02-21T04:34:11;4.85;;;3.83;;
12476;SDS011;6303;51.504;6.300;2023-02-21T04:36:41;4.22;;;3.58;;
12476;SDS011;6303;51.504;6.300;2023-02-21T04:39:09;4.15;;;3.75;;
12476;SDS011;6303;51.504;6.300;2023-02-21T04:41:37;4.10;;;3.70;;
12476;SDS011;6303;51.504;6.300;2023-02-21T04:44:05;4.30;;;3.90;;
12476;SDS011;6303;51.504;6.300;2023-02-21T04:46:34;5.18;;;3.97;;
12476;SDS011;6303;51.504;6.300;2023-02-21T04:49:01;4.72;;;4.18;;
12476;SDS011;6303;51.504;6.300;2023-02-21T04:51:28;4.40;;;3.97;;
12476;SDS011;6303;51.504;6.300;2023-02-21T04:53:55;4.03;;;3.63;;
12476;SDS011;6303;51.504;6.300;2023-02-21T04:56:22;4.30;;;3.88;;
12476;SDS011;6303;51.504;6.300;2023-02-21T04:58:53;3.92;;;3.47;;
12476;SDS011;6303;51.504;6.300;2023-02-21T05:01:21;4.38;;;3.97;;
12476;SDS011;6303;51.504;6.300;2023-02-21T05:03:50;4.85;;;4.13;;
12476;SDS011;6303;51.504;6.300;2023-02-21T05:06:17;4.53;;;4.00;;
12476;SDS011;6303;51.504;6.300;2023-02-21T05:08:44;4.47;;;3.95;;
12476;SDS011;6303;51.504;6.300;2023-02-21T05:11:11;4.45;;;3.58;;
12476;SDS011;6303;51.504;6.300;2023-02-21T05:13:39;4.55;;;4.10;;
12476;SDS011;6303;51.504;6.300;2023-02-21T05:16:06;6.70;;;4.00;;
12476;SDS011;6303;51.504;6.300;2023-02-21T05:18:33;4.30;;;3.85;;
12476;SDS011;6303;51.504;6.300;2023-02-21T05:21:03;4.40;;;3.80;;
12476;SDS011;6303;51.504;6.300;2023-02-21T05:23:31;5.30;;;4.80;;
12476;SDS011;6303;51.504;6.300;2023-02-21T05:26:05;4.47;;;3.85;;
12476;SDS011;6303;51.504;6.300;2023-02-21T05:28:34;4.65;;;3.88;;
12476;SDS011;6303;51.504;6.300;2023-02-21T05:31:02;4.20;;;3.80;;
12476;SDS011;6303;51.504;6.300;2023-02-21T05:33:29;4.68;;;4.20;;
12476;SDS011;6303;51.504;6.300;2023-02-21T05:35:56;5.40;;;4.53;;
12476;SDS011;6303;51.504;6.300;2023-02-21T05:38:26;5.13;;;4.30;;
12476;SDS011;6303;51.504;6.300;2023-02-21T05:40:53;4.50;;;4.10;;
12476;SDS011;6303;51.504;6.300;2023-02-21T05:43:20;4.85;;;4.25;;
12476;SDS011;6303;51.504;6.300;2023-02-21T05:45:47;6.28;;;4.80;;
12476;SDS011;6303;51.504;6.300;2023-02-21T05:48:14;5.68;;;4.45;;
12476;SDS011;6303;51.504;6.300;2023-02-21T05:50:41;5.10;;;4.50;;
12476;SDS011;6303;51.504;6.300;2023-02-21T05:53:09;4.32;;;3.92;;
12476;SDS011;6303;51.504;6.300;2023-02-21T05:55:37;4.47;;;3.92;;
12476;SDS011;6303;51.504;6.300;2023-02-21T05:58:04;5.22;;;4.40;;
12476;SDS011;6303;51.504;6.300;2023-02-21T06:00:31;5.35;;;4.40;;
12476;SDS011;6303;51.504;6.300;2023-02-21T06:02:58;5.93;;;4.50;;
12476;SDS011;6303;51.504;6.300;2023-02-21T06:05:26;6.25;;;4.55;;
12476;SDS011;6303;51.504;6.300;2023-02-21T06:07:53;6.63;;;4.78;;
12476;SDS011;6303;51.504;6.300;2023-02-21T06:10:20;8.43;;;5.15;;
12476;SDS011;6303;51.504;6.300;2023-02-21T06:12:48;10.82;;;5.50;;
12476;SDS011;6303;51.504;6.300;2023-02-21T06:15:15;11.68;;;6.10;;
12476;SDS011;6303;51.504;6.300;2023-02-21T06:17:43;9.98;;;6.25;;
12476;SDS011;6303;51.504;6.300;2023-02-21T06:20:12;11.52;;;6.10;;
12476;SDS011;6303;51.504;6.300;2023-02-21T06:22:41;10.15;;;5.78;;
12476;SDS011;6303;51.504;6.300;2023-02-21T06:25:08;9.75;;;6.05;;
12476;SDS011;6303;51.504;6.300;2023-02-21T06:27:36;12.23;;;6.78;;
12476;SDS011;6303;51.504;6.300;2023-02-21T06:30:05;9.85;;;6.30;;
12476;SDS011;6303;51.504;6.300;2023-02-21T06:32:32;9.50;;;6.30;;
12476;SDS011;6303;51.504;6.300;2023-02-21T06:35:00;10.25;;;6.47;;
12476;SDS011;6303;51.504;6.300;2023-02-21T06:37:27;10.27;;;6.03;;
12476;SDS011;6303;51.504;6.300;2023-02-21T06:39:54;12.40;;;6.57;;
12476;SDS011;6303;51.504;6.300;2023-02-21T06:42:21;9.98;;;6.28;;
12476;SDS011;6303;51.504;6.300;2023-02-21T06:44:49;9.32;;;5.78;;
12476;SDS011;6303;51.504;6.300;2023-02-21T06:47:17;10.50;;;6.43;;
12476;SDS011;6303;51.504;6.300;2023-02-21T06:49:44;9.27;;;6.03;;
12476;SDS011;6303;51.504;6.300;2023-02-21T06:52:11;7.75;;;5.47;;
12476;SDS011;6303;51.504;6.300;2023-02-21T06:54:38;9.18;;;6.38;;
12476;SDS011;6303;51.504;6.300;2023-02-21T06:57:05;8.18;;;5.60;;
12476;SDS011;6303;51.504;6.300;2023-02-21T06:59:32;8.07;;;5.90;;
12476;SDS011;6303;51.504;6.300;2023-02-21T07:01:59;7.88;;;5.80;;
12476;SDS011;6303;51.504;6.300;2023-02-21T07:04:30;8.05;;;5.25;;
12476;SDS011;6303;51.504;6.300;2023-02-21T07:06:57;7.90;;;5.47;;
12476;SDS011;6303;51.504;6.300;2023-02-21T07:09:24;8.85;;;5.50;;
12476;SDS011;6303;51.504;6.300;2023-02-21T07:11:51;7.65;;;5.65;;
12476;SDS011;6303;51.504;6.300;2023-02-21T07:14:18;8.05;;;5.85;;
12476;SDS011;6303;51.504;6.300;2023-02-21T07:16:45;9.00;;;5.22;;
12476;SDS011;6303;51.504;6.300;2023-02-21T07:19:12;7.68;;;5.13;;
12476;SDS011;6303;51.504;6.300;2023-02-21T07:21:42;6.65;;;5.25;;
12476;SDS011;6303;51.504;6.300;2023-02-21T07:24:09;7.53;;;5.20;;
12476;SDS011;6303;51.504;6.300;2023-02-21T07:26:37;6.35;;;4.80;;
12476;SDS011;6303;51.504;6.300;2023-02-21T07:29:04;6.90;;;5.43;;
12476;SDS011;6303;51.504;6.300;2023-02-21T07:31:31;6.05;;;5.13;;
12476;SDS011;6303;51.504;6.300;2023-02-21T07:33:58;6.88;;;5.07;;
12476;SDS011;6303;51.504;6.300;2023-02-21T07:36:25;6.53;;;5.22;;
12476;SDS011;6303;51.504;6.300;2023-02-21T07:38:54;6.40;;;4.80;;
12476;SDS011;6303;51.504;6.300;2023-02-21T07:41:21;6.50;;;4.90;;
12476;SDS011;6303;51.504;6.300;2023-02-21T07:43:48;7.00;;;5.00;;
12476;SDS011;6303;51.504;6.300;2023-02-21T07:46:15;6.38;;;4.68;;
12476;SDS011;6303;51.504;6.300;2023-02-21T07:48:42;6.90;;;5.30;;
12476;SDS011;6303;51.504;6.300;2023-02-21T07:51:09;5.57;;;4.90;;
12476;SDS011;6303;51.504;6.300;2023-02-21T07:53:36;7.63;;;5.05;;
12476;SDS011;6303;51.504;6.300;2023-02-21T07:56:05;6.18;;;4.80;;
12476;SDS011;6303;51.504;6.300;2023-02-21T07:58:32;6.07;;;4.55;;
12476;SDS011;6303;51.504;6.300;2023-02-21T08:01:01;6.20;;;4.57;;
12476;SDS011;6303;51.504;6.300;2023-02-21T08:03:29;6.40;;;4.72;;
12476;SDS011;6303;51.504;6.300;2023-02-21T08:05:56;5.88;;;4.50;;
12476;SDS011;6303;51.504;6.300;2023-02-21T08:08:24;6.40;;;4.57;;
12476;SDS011;6303;51.504;6.300;2023-02-21T08:10:51;6.85;;;4.80;;
12476;SDS011;6303;51.504;6.300;2023-02-21T08:13:19;5.10;;;4.60;;
12476;SDS011;6303;51.504;6.300;2023-02-21T08:15:46;5.93;;;4.65;;
12476;SDS011;6303;51.504;6.300;2023-02-21T08:18:14;7.40;;;5.65;;
12476;SDS011;6303;51.504;6.300;2023-02-21T08:20:43;5.68;;;4.72;;
12476;SDS011;6303;51.504;6.300;2023-02-21T08:23:10;7.20;;;4.93;;
12476;SDS011;6303;51.504;6.300;2023-02-21T08:25:38;7.20;;;4.97;;
12476;SDS011;6303;51.504;6.300;2023-02-21T08:28:05;5.68;;;4.63;;
12476;SDS011;6303;51.504;6.300;2023-02-21T08:30:33;5.35;;;4.25;;
12476;SDS011;6303;51.504;6.300;2023-02-21T08:33:00;5.60;;;4.35;;
12476;SDS011;6303;51.504;6.300;2023-02-21T08:35:27;6.13;;;4.85;;
12476;SDS011;6303;51.504;6.300;2023-02-21T08:37:54;5.82;;;4.47;;
12476;SDS011;6303;51.504;6.300;2023-02-21T08:40:26;5.82;;;5.07;;
12476;SDS011;6303;51.504;6.300;2023-02-21T08:42:54;6.18;;;4.32;;
12476;SDS011;6303;51.504;6.300;2023-02-21T08:45:22;5.13;;;4.43;;
12476;SDS011;6303;51.504;6.300;2023-02-21T08:47:51;4.88;;;4.35;;
12476;SDS011;6303;51.504;6.300;2023-02-21T08:50:19;6.10;;;4.20;;
12476;SDS011;6303;51.504;6.300;2023-02-21T08:52:49;6.03;;;4.50;;
12476;SDS011;6303;51.504;6.300;2023-02-21T08:55:17;6.32;;;4.80;;
12476;SDS011;6303;51.504;6.300;2023-02-21T08:57:46;5.38;;;4.50;;
12476;SDS011;6303;51.504;6.300;2023-02-21T09:00:15;5.25;;;4.43;;
12476;SDS011;6303;51.504;6.300;2023-02-21T09:02:44;5.53;;;4.50;;
12476;SDS011;6303;51.504;6.300;2023-02-21T09:05:14;4.90;;;4.20;;
12476;SDS011;6303;51.504;6.300;2023-02-21T09:07:43;4.90;;;4.10;;
12476;SDS011;6303;51.504;6.300;2023-02-21T09:10:12;5.05;;;4.40;;
12476;SDS011;6303;51.504;6.300;2023-02-21T09:12:39;6.22;;;4.47;;
12476;SDS011;6303;51.504;6.300;2023-02-21T09:15:07;5.05;;;4.35;;
12476;SDS011;6303;51.504;6.300;2023-02-21T09:17:34;5.00;;;4.18;;
12476;SDS011;6303;51.504;6.300;2023-02-21T09:20:02;5.25;;;4.47;;
12476;SDS011;6303;51.504;6.300;2023-02-21T09:22:33;4.75;;;4.10;;
12476;SDS011;6303;51.504;6.300;2023-02-21T09:25:00;4.70;;;4.30;;
12476;SDS011;6303;51.504;6.300;2023-02-21T09:27:27;4.35;;;3.95;;
12476;SDS011;6303;51.504;6.300;2023-02-21T09:30:05;4.70;;;4.20;;
12476;SDS011;6303;51.504;6.300;2023-02-21T09:32:35;5.22;;;4.53;;
12476;SDS011;6303;51.504;6.300;2023-02-21T09:35:03;4.85;;;4.15;;
12476;SDS011;6303;51.504;6.300;2023-02-21T09:37:35;5.18;;;4.07;;
12476;SDS011;6303;51.504;6.300;2023-02-21T09:40:03;4.70;;;4.00;;
12476;SDS011;6303;51.504;6.300;2023-02-21T09:42:32;4.28;;;3.83;;
12476;SDS011;6303;51.504;6.300;2023-02-21T09:45:00;4.70;;;4.20;;
12476;SDS011;6303;51.504;6.300;2023-02-21T09:47:29;5.60;;;4.50;;
12476;SDS011;6303;51.504;6.300;2023-02-21T09:50:00;4.68;;;4.13;;
12476;SDS011;6303;51.504;6.300;2023-02-21T09:52:30;4.57;;;3.90;;
12476;SDS011;6303;51.504;6.300;2023-02-21T09:55:06;4.85;;;4.10;;
12476;SDS011;6303;51.504;6.300;2023-02-21T09:57:38;4.70;;;4.20;;
12476;SDS011;6303;51.504;6.300;2023-02-21T10:00:09;4.45;;;3.85;;
12476;SDS011;6303;51.504;6.300;2023-02-21T10:02:46;4.47;;;4.07;;
12476;SDS011;6303;51.504;6.300;2023-02-21T10:05:21;4.60;;;4.10;;
12476;SDS011;6303;51.504;6.300;2023-02-21T10:07:59;4.20;;;3.80;;
12476;SDS011;6303;51.504;6.300;2023-02-21T10:10:32;4.72;;;3.70;;
12476;SDS011;6303;51.504;6.300;2023-02-21T10:13:09;4.25;;;3.85;;
12476;SDS011;6303;51.504;6.300;2023-02-21T10:15:46;4.60;;;4.05;;
12476;SDS011;6303;51.504;6.300;2023-02-21T10:18:21;4.07;;;3.67;;
12476;SDS011;6303;51.504;6.300;2023-02-21T10:20:57;4.15;;;3.67;;
12476;SDS011;6303;51.504;6.300;2023-02-21T10:23:31;4.35;;;3.53;;
12476;SDS011;6303;51.504;6.300;2023-02-21T10:26:03;4.18;;;3.60;;
12476;SDS011;6303;51.504;6.300;2023-02-21T10:28:33;4.43;;;3.63;;
12476;SDS011;6303;51.504;6.300;2023-02-21T10:31:02;3.97;;;3.58;;
12476;SDS011;6303;51.504;6.300;2023-02-21T10:33:37;4.10;;;3.63;;
12476;SDS011;6303;51.504;6.300;2023-02-21T10:36:09;3.63;;;3.33;;
12476;SDS011;6303;51.504;6.300;2023-02-21T10:38:39;4.00;;;3.60;;
12476;SDS011;6303;51.504;6.300;2023-02-21T10:41:10;4.10;;;3.70;;
12476;SDS011;6303;51.504;6.300;2023-02-21T10:43:38;3.88;;;3.50;;
12476;SDS011;6303;51.504;6.300;2023-02-21T10:46:12;4.32;;;3.92;;
12476;SDS011;6303;51.504;6.300;2023-02-21T10:48:46;5.53;;;3.78;;
12476;SDS011;6303;51.504;6.300;2023-02-21T10:51:17;4.63;;;3.70;;
12476;SDS011;6303;51.504;6.300;2023-02-21T10:54:15;3.92;;;3.55;;
12476;SDS011;6303;51.504;6.300;2023-02-21T10:56:44;3.67;;;3.28;;
12476;SDS011;6303;51.504;6.300;2023-02-21T10:59:12;3.95;;;3.50;;
12476;SDS011;6303;51.504;6.300;2023-02-21T11:01:46;4.50;;;3.40;;
12476;SDS011;6303;51.504;6.300;2023-02-21T11:04:27;3.97;;;3.60;;
12476;SDS011;6303;51.504;6.300;2023-02-21T11:06:56;4.30;;;3.60;;
12476;SDS011;6303;51.504;6.300;2023-02-21T11:09:32;3.80;;;3.50;;
12476;SDS011;6303;51.504;6.300;2023-02-21T11:12:04;3.83;;;3.53;;
12476;SDS011;6303;51.504;6.300;2023-02-21T11:14:43;3.72;;;3.30;;
12476;SDS011;6303;51.504;6.300;2023-02-21T11:17:28;4.20;;;3.17;;
12476;SDS011;6303;51.504;6.300;2023-02-21T11:19:57;4.13;;;3.30;;
12476;SDS011;6303;51.504;6.300;2023-02-21T11:22:34;3.63;;;3.13;;
12476;SDS011;6303;51.504;6.300;2023-02-21T11:25:05;3.80;;;3.50;;
12476;SDS011;6303;51.504;6.300;2023-02-21T11:27:41;3.95;;;3.35;;
12476;SDS011;6303;51.504;6.300;2023-02-21T11:30:11;3.83;;;3.22;;
12476;SDS011;6303;51.504;6.300;2023-02-21T11:32:41;4.57;;;3.47;;
12476;SDS011;6303;51.504;6.300;2023-02-21T11:35:20;3.60;;;3.30;;
12476;SDS011;6303;51.504;6.300;2023-02-21T11:37:51;3.20;;;2.90;;
12476;SDS011;6303;51.504;6.300;2023-02-21T11:40:39;3.40;;;3.10;;
12476;SDS011;6303;51.504;6.300;2023-02-21T11:43:09;3.45;;;3.15;;
12476;SDS011;6303;51.504;6.300;2023-02-21T11:45:37;3.45;;;3.13;;
12476;SDS011;6303;51.504;6.300;2023-02-21T11:48:12;4.45;;;3.25;;
12476;SDS011;6303;51.504;6.300;2023-02-21T11:50:43;3.63;;;3.33;;
12476;SDS011;6303;51.504;6.300;2023-02-21T11:53:17;3.97;;;3.15;;
12476;SDS011;6303;51.504;6.300;2023-02-21T11:55:51;3.55;;;3.17;;
12476;SDS011;6303;51.504;6.300;2023-02-21T11:58:24;4.90;;;3.08;;
12476;SDS011;6303;51.504;6.300;2023-02-21T12:00:55;3.47;;;3.17;;
12476;SDS011;6303;51.504;6.300;2023-02-21T12:03:44;3.60;;;2.90;;
12476;SDS011;6303;51.504;6.300;2023-02-21T12:06:36;3.50;;;3.20;;
12476;SDS011;6303;51.504;6.300;2023-02-21T12:09:11;4.40;;;3.17;;
12476;SDS011;6303;51.504;6.300;2023-02-21T12:11:53;3.80;;;3.13;;
12476;SDS011;6303;51.504;6.300;2023-02-21T12:14:33;4.03;;;3.30;;
12476;SDS011;6303;51.504;6.300;2023-02-21T12:17:16;4.15;;;3.20;;
12476;SDS011;6303;51.504;6.300;2023-02-21T12:19:58;3.60;;;3.00;;
12476;SDS011;6303;51.504;6.300;2023-02-21T12:22:46;3.38;;;3.05;;
12476;SDS011;6303;51.504;6.300;2023-02-21T12:25:27;3.17;;;2.88;;
12476;SDS011;6303;51.504;6.300;2023-02-21T12:28:02;3.50;;;3.20;;
12476;SDS011;6303;51.504;6.300;2023-02-21T12:30:50;4.38;;;2.90;;
12476;SDS011;6303;51.504;6.300;2023-02-21T12:33:34;3.17;;;2.88;;
12476;SDS011;6303;51.504;6.300;2023-02-21T12:36:17;3.28;;;2.72;;
12476;SDS011;6303;51.504;6.300;2023-02-21T12:39:03;3.55;;;3.03;;
12476;SDS011;6303;51.504;6.300;2023-02-21T12:41:51;2.60;;;2.40;;
12476;SDS011;6303;51.504;6.300;2023-02-21T12:44:35;3.38;;;2.70;;
12476;SDS011;6303;51.504;6.300;2023-02-21T12:47:10;3.47;;;3.17;;
12476;SDS011;6303;51.504;6.300;2023-02-21T12:49:43;4.22;;;3.10;;
12476;SDS011;6303;51.504;6.300;2023-02-21T12:52:18;3.20;;;2.90;;
12476;SDS011;6303;51.504;6.300;2023-02-21T12:54:51;3.17;;;2.88;;
12476;SDS011;6303;51.504;6.300;2023-02-21T12:57:25;3.10;;;2.70;;
12476;SDS011;6303;51.504;6.300;2023-02-21T13:00:01;3.10;;;2.80;;
12476;SDS011;6303;51.504;6.300;2023-02-21T13:02:39;3.45;;;2.60;;
12476;SDS011;6303;51.504;6.300;2023-02-21T13:05:12;3.20;;;2.90;;
12476;SDS011;6303;51.504;6.300;2023-02-21T13:07:42;3.20;;;2.90;;
12476;SDS011;6303;51.504;6.300;2023-02-21T13:10:14;3.13;;;2.83;;
12476;SDS011;6303;51.504;6.300;2023-02-21T13:12:46;3.15;;;2.75;;
12476;SDS011;6303;51.504;6.300;2023-02-21T13:15:22;3.00;;;2.70;;
12476;SDS011;6303;51.504;6.300;2023-02-21T13:17:59;2.88;;;2.65;;
12476;SDS011;6303;51.504;6.300;2023-02-21T13:20:32;3.03;;;2.83;;
12476;SDS011;6303;51.504;6.300;2023-02-21T13:23:01;3.10;;;2.80;;
12476;SDS011;6303;51.504;6.300;2023-02-21T13:25:34;3.17;;;2.70;;
12476;SDS011;6303;51.504;6.300;2023-02-21T13:28:11;2.80;;;2.60;;
12476;SDS011;6303;51.504;6.300;2023-02-21T13:30:45;2.65;;;2.45;;
12476;SDS011;6303;51.504;6.300;2023-02-21T13:33:24;2.63;;;2.30;;
12476;SDS011;6303;51.504;6.300;2023-02-21T13:35:55;2.85;;;2.65;;
12476;SDS011;6303;51.504;6.300;2023-02-21T13:38:25;2.63;;;2.40;;
12476;SDS011;6303;51.504;6.300;2023-02-21T13:41:01;2.65;;;2.40;;
12476;SDS011;6303;51.504;6.300;2023-02-21T13:43:32;2.50;;;2.30;;
12476;SDS011;6303;51.504;6.300;2023-02-21T13:52:14;2.72;;;2.53;;
12476;SDS011;6303;51.504;6.300;2023-02-21T14:10:33;2.85;;;2.50;;
12476;SDS011;6303;51.504;6.300;2023-02-21T14:13:07;2.53;;;2.30;;
12476;SDS011;6303;51.504;6.300;2023-02-21T14:15:46;2.55;;;2.35;;
12476;SDS011;6303;51.504;6.300;2023-02-21T14:18:17;2.53;;;2.33;;
12476;SDS011;6303;51.504;6.300;2023-02-21T14:20:48;2.50;;;2.30;;
12476;SDS011;6303;51.504;6.300;2023-02-21T14:23:20;2.80;;;2.38;;
12476;SDS011;6303;51.504;6.300;2023-02-21T14:25:56;2.92;;;2.30;;
12476;SDS011;6303;51.504;6.300;2023-02-21T14:31:19;2.50;;;2.30;;
12476;SDS011;6303;51.504;6.300;2023-02-21T14:34:12;2.67;;;2.40;;
12476;SDS011;6303;51.504;6.300;2023-02-21T14:36:42;2.40;;;2.20;;
12476;SDS011;6303;51.504;6.300;2023-02-21T14:39:13;2.25;;;2.05;;
12476;SDS011;6303;51.504;6.300;2023-02-21T14:41:45;2.47;;;2.28;;
12476;SDS011;6303;51.504;6.300;2023-02-21T14:44:33;2.35;;;2.15;;
12476;SDS011;6303;51.504;6.300;2023-02-21T14:47:23;2.35;;;2.15;;
12476;SDS011;6303;51.504;6.300;2023-02-21T14:50:05;2.40;;;2.20;;
12476;SDS011;6303;51.504;6.300;2023-02-21T14:59:01;2.40;;;2.20;;
12476;SDS011;6303;51.504;6.300;2023-02-21T15:01:57;2.30;;;2.10;;
12476;SDS011;6303;51.504;6.300;2023-02-21T15:04:32;2.60;;;2.40;;
12476;SDS011;6303;51.504;6.300;2023-02-21T15:07:09;2.35;;;2.15;;
12476;SDS011;6303;51.504;6.300;2023-02-21T15:12:32;2.58;;;2.38;;
12476;SDS011;6303;51.504;6.300;2023-02-21T15:15:10;2.28;;;2.08;;
12476;SDS011;6303;51.504;6.300;2023-02-21T15:17:40;2.55;;;2.35;;
12476;SDS011;6303;51.504;6.300;2023-02-21T15:20:12;2.17;;;2.00;;
12476;SDS011;6303;51.504;6.300;2023-02-21T15:22:41;2.20;;;2.00;;
12476;SDS011;6303;51.504;6.300;2023-02-21T15:25:13;2.45;;;2.25;;
12476;SDS011;6303;51.504;6.300;2023-02-21T15:27:56;2.25;;;2.10;;
12476;SDS011;6303;51.504;6.300;2023-02-21T15:30:26;2.13;;;1.90;;
12476;SDS011;6303;51.504;6.300;2023-02-21T15:32:58;2.50;;;2.30;;
12476;SDS011;6303;51.504;6.300;2023-02-21T15:35:30;2.65;;;2.25;;
12476;SDS011;6303;51.504;6.300;2023-02-21T15:37:59;2.30;;;2.10;;
12476;SDS011;6303;51.504;6.300;2023-02-21T15:40:29;2.33;;;2.13;;
12476;SDS011;6303;51.504;6.300;2023-02-21T15:42:56;2.17;;;2.03;;
12476;SDS011;6303;51.504;6.300;2023-02-21T15:45:26;2.67;;;2.00;;
12476;SDS011;6303;51.504;6.300;2023-02-21T15:47:58;2.20;;;2.00;;
12476;SDS011;6303;51.504;6.300;2023-02-21T15:50:30;2.00;;;1.90;;
12476;SDS011;6303;51.504;6.300;2023-02-21T15:53:15;2.20;;;2.00;;
12476;SDS011;6303;51.504;6.300;2023-02-21T15:55:44;2.28;;;2.08;;
12476;SDS011;6303;51.504;6.300;2023-02-21T15:58:20;2.53;;;2.33;;
12476;SDS011;6303;51.504;6.300;2023-02-21T16:01:01;2.28;;;2.08;;
12476;SDS011;6303;51.504;6.300;2023-02-21T16:03:34;2.22;;;2.08;;
12476;SDS011;6303;51.504;6.300;2023-02-21T16:08:59;2.33;;;2.13;;
12476;SDS011;6303;51.504;6.300;2023-02-21T16:11:38;2.38;;;2.17;;
12476;SDS011;6303;51.504;6.300;2023-02-21T16:14:15;3.08;;;2.20;;
12476;SDS011;6303;51.504;6.300;2023-02-21T16:16:58;2.42;;;2.10;;
12476;SDS011;6303;51.504;6.300;2023-02-21T16:19:33;2.47;;;2.28;;
12476;SDS011;6303;51.504;6.300;2023-02-21T16:22:11;2.20;;;2.00;;
12476;SDS011;6303;51.504;6.300;2023-02-21T16:24:46;2.50;;;2.30;;